Pomme de Terre River (Missouri), Hermitage (06921350)

StateMissouriLatestFlood (3560 cfs)
RiverPomme de Terre RiverRatingObservedEstimated
Updated2024-06-14 21:45 (1 hour ago)Flood - The river is flooding. Obstacles can be treacherous or deadly. The river should be avoided at this stage for casual trips and definitely for the inexperienced. Trips should be attempted only with protective gear and equipment.Flood(none)3137
Discharge3560 cfs (median: 341 cfs)High - The river is high and potentially dangerous, especially for the young and / or inexperienced. Normal stream obstacles are sometimes difficult to navigate. Extended distances can be attempted, but canoe travel may not be advisable.High(none)1751
Height8.88 feetGood - Conditions are ideal for a canoe or kayak. Boats typically will drag on fewer than one-quarter of riffles, if at all, and portages are unnecessary or rare. Normal float lengths can be attempted without a problem.Good(none)357
TrendRising (falling over 24 hours)Low - River is low but can still be floated. Some riffles are okay but most come with significant dragging and might need a portage. Float lengths should be reduced to accommodate low flow, dragging, and portages.Low(none)251
USGSExternal icon USGS Site (External icon Duck Duck Go Maps)Poor - River is too low to float comfortably. Most or all riffles will drag or must be portaged and some obstacles (such as slick shelf rock) cause undue problems. Avoid the river at this stage for casual paddling trips.Poor(none)68

Trending Data

Plot Image

Trips for Pomme de Terre River (Missouri), Hermitage (06921350)

DateStartEndDistanceConditionDischargeHeightFishingDetails

A total of 0 rows are displayed.

Condition Descriptions

Fishing Conditions

Fish Species

Notes

Classic Trip List

The classic River Trips application is still available for use. It is updated with the new system using a data retrofit. It is no longer maintained. The original River Trips application is no longer updated (as of 1 Dec 2016) but can be checked for errors or for the condition of the data before it was converted to the new system.

Gauge Data Table

ObservationHeightDischargeMaximum
Discharge
Minimum
Discharge
Mean
Discharge
P05P10P20P25P50
(Median)
P75P80P90P95
2024-06-14 21:45 8.88 3560 3550 (1995) 24 (1963) 771 47 52 79 87 341 1050 1200 2570 3060
2024-06-14 20:45 8.87 3550 3550 (1995) 24 (1963) 771 47 52 79 87 341 1050 1200 2570 3060
2024-06-14 19:45 8.91 3590 3550 (1995) 24 (1963) 771 47 52 79 87 341 1050 1200 2570 3060
2024-06-14 18:45 8.89 3570 3550 (1995) 24 (1963) 771 47 52 79 87 341 1050 1200 2570 3060
2024-06-14 17:45 8.89 3570 3550 (1995) 24 (1963) 771 47 52 79 87 341 1050 1200 2570 3060
2024-06-14 16:45 8.89 3570 3550 (1995) 24 (1963) 771 47 52 79 87 341 1050 1200 2570 3060
2024-06-14 15:45 8.88 3560 3550 (1995) 24 (1963) 771 47 52 79 87 341 1050 1200 2570 3060
2024-06-14 14:45 8.89 3570 3550 (1995) 24 (1963) 771 47 52 79 87 341 1050 1200 2570 3060
2024-06-14 13:45 8.90 3580 3550 (1995) 24 (1963) 771 47 52 79 87 341 1050 1200 2570 3060
2024-06-14 12:45 8.87 3550 3550 (1995) 24 (1963) 771 47 52 79 87 341 1050 1200 2570 3060
2024-06-14 11:45 8.83 3510 3550 (1995) 24 (1963) 771 47 52 79 87 341 1050 1200 2570 3060
2024-06-14 10:45 8.38 3090 3550 (1995) 24 (1963) 771 47 52 79 87 341 1050 1200 2570 3060
2024-06-14 09:45 8.34 3050 3550 (1995) 24 (1963) 771 47 52 79 87 341 1050 1200 2570 3060
2024-06-14 08:45 7.99 2750 3550 (1995) 24 (1963) 771 47 52 79 87 341 1050 1200 2570 3060
2024-06-14 07:45 7.77 2560 3550 (1995) 24 (1963) 771 47 52 79 87 341 1050 1200 2570 3060
2024-06-14 06:45 7.75 2550 3550 (1995) 24 (1963) 771 47 52 79 87 341 1050 1200 2570 3060
2024-06-14 05:45 7.79 2580 3550 (1995) 24 (1963) 771 47 52 79 87 341 1050 1200 2570 3060
2024-06-14 04:45 7.78 2570 3550 (1995) 24 (1963) 771 47 52 79 87 341 1050 1200 2570 3060
2024-06-14 03:45 7.81 2600 3550 (1995) 24 (1963) 771 47 52 79 87 341 1050 1200 2570 3060
2024-06-14 02:45 7.85 2630 3550 (1995) 24 (1963) 771 47 52 79 87 341 1050 1200 2570 3060
2024-06-14 01:45 8.07 2810 3550 (1995) 24 (1963) 771 47 52 79 87 341 1050 1200 2570 3060
2024-06-14 00:45 9.01 3690 3550 (1995) 24 (1963) 771 47 52 79 87 341 1050 1200 2570 3060
2024-06-13 23:45 8.98 3660 3550 (1995) 24 (1963) 771 47 52 79 87 341 1050 1200 2570 3060
2024-06-13 22:45 8.99 3670 3560 (1995) 23 (1963) 853 47 51 70 89 432 1230 1640 2720 3080
2024-06-13 21:45 8.99 3670 3560 (1995) 23 (1963) 853 47 51 70 89 432 1230 1640 2720 3080
2024-06-13 20:45 9.00 3680 3560 (1995) 23 (1963) 853 47 51 70 89 432 1230 1640 2720 3080
2024-06-13 19:45 9.00 3680 3560 (1995) 23 (1963) 853 47 51 70 89 432 1230 1640 2720 3080
2024-06-13 18:45 8.98 3660 3560 (1995) 23 (1963) 853 47 51 70 89 432 1230 1640 2720 3080
2024-06-13 17:45 8.99 3670 3560 (1995) 23 (1963) 853 47 51 70 89 432 1230 1640 2720 3080
2024-06-13 16:45 8.99 3670 3560 (1995) 23 (1963) 853 47 51 70 89 432 1230 1640 2720 3080
2024-06-13 15:45 8.94 3620 3560 (1995) 23 (1963) 853 47 51 70 89 432 1230 1640 2720 3080
2024-06-13 14:45 8.64 3330 3560 (1995) 23 (1963) 853 47 51 70 89 432 1230 1640 2720 3080
2024-06-13 13:45 8.41 3120 3560 (1995) 23 (1963) 853 47 51 70 89 432 1230 1640 2720 3080
2024-06-13 12:45 8.40 3110 3560 (1995) 23 (1963) 853 47 51 70 89 432 1230 1640 2720 3080
2024-06-13 11:45 8.38 3090 3560 (1995) 23 (1963) 853 47 51 70 89 432 1230 1640 2720 3080
2024-06-13 10:45 8.40 3110 3560 (1995) 23 (1963) 853 47 51 70 89 432 1230 1640 2720 3080
2024-06-13 09:45 8.39 3100 3560 (1995) 23 (1963) 853 47 51 70 89 432 1230 1640 2720 3080
2024-06-13 08:45 8.43 3130 3560 (1995) 23 (1963) 853 47 51 70 89 432 1230 1640 2720 3080
2024-06-13 07:45 8.39 3100 3560 (1995) 23 (1963) 853 47 51 70 89 432 1230 1640 2720 3080
2024-06-13 06:45 8.39 3100 3560 (1995) 23 (1963) 853 47 51 70 89 432 1230 1640 2720 3080
2024-06-13 05:45 8.41 3120 3560 (1995) 23 (1963) 853 47 51 70 89 432 1230 1640 2720 3080
2024-06-13 04:45 8.39 3100 3560 (1995) 23 (1963) 853 47 51 70 89 432 1230 1640 2720 3080
2024-06-13 03:45 8.40 3110 3560 (1995) 23 (1963) 853 47 51 70 89 432 1230 1640 2720 3080
2024-06-13 02:45 8.41 3120 3560 (1995) 23 (1963) 853 47 51 70 89 432 1230 1640 2720 3080
2024-06-13 01:45 8.42 3120 3560 (1995) 23 (1963) 853 47 51 70 89 432 1230 1640 2720 3080
2024-06-13 00:45 8.39 3100 3560 (1995) 23 (1963) 853 47 51 70 89 432 1230 1640 2720 3080
2024-06-12 23:45 8.38 3090 3560 (1995) 23 (1963) 853 47 51 70 89 432 1230 1640 2720 3080

A total of 47 rows are displayed for years 1961 through 2023.